Time;durP1;ratioP1;P1;durP2;ratioP2;P2;SDS_P1;SDS_P2;PMS_P1;PMS_P2;Temp;Humidity;BMP_temperature;BMP_pressure;BME280_temperature;BME280_humidity;BME280_pressure;Samples;Min_cycle;Max_cycle;Signal;HPM_P1;HPM_P2
2023/10/06 00:01:31;;;;;;;10.50;6.93;;;;;;;9.82;100.00;153880.13;4968596;28;20445;-80
2023/10/06 00:04:06;;;;;;;11.50;7.20;;;;;;;9.82;100.00;153882.69;4961132;28;20441;-80
2023/10/06 00:06:37;;;;;;;6.90;6.20;;;;;;;9.83;100.00;153883.97;4966669;28;20530;-80
2023/10/06 00:09:06;;;;;;;10.03;7.40;;;;;;;9.79;100.00;153874.91;4978546;28;20436;-80
2023/10/06 00:11:33;;;;;;;7.57;6.87;;;;;;;9.75;100.00;153864.56;4985359;28;20476;-80
2023/10/06 00:14:07;;;;;;;9.83;7.60;;;;;;;9.72;100.00;153856.81;4976601;28;20435;-80
2023/10/06 00:16:38;;;;;;;10.10;7.17;;;;;;;9.72;100.00;153856.81;4958872;28;20806;-80
2023/10/06 00:19:19;;;;;;;9.17;7.63;;;;;;;9.69;100.00;153849.03;4964800;28;20477;-80
2023/10/06 00:22:01;;;;;;;10.03;7.20;;;;;;;9.65;100.00;153838.72;4956539;28;20426;-80
2023/10/06 00:24:28;;;;;;;12.53;7.87;;;;;;;9.62;100.00;153830.94;5001537;28;20563;-80
2023/10/06 00:26:57;;;;;;;9.00;7.30;;;;;;;9.60;100.00;153824.47;4985914;28;20495;-80
2023/10/06 00:29:24;;;;;;;10.53;8.00;;;;;;;9.59;100.00;153823.16;4956315;28;20441;-80
2023/10/06 00:31:50;;;;;;;10.67;7.57;;;;;;;9.56;100.00;153815.41;4956075;28;20586;-80
2023/10/06 00:34:19;;;;;;;10.27;8.50;;;;;;;9.56;100.00;153815.41;4972031;28;20467;-80
2023/10/06 00:36:51;;;;;;;12.47;7.33;;;;;;;9.54;100.00;153808.94;4984485;28;20945;-80
2023/10/06 00:39:22;;;;;;;10.10;8.17;;;;;;;9.47;100.00;153792.13;4970208;28;20512;-80
2023/10/06 00:41:55;;;;;;;10.50;7.40;;;;;;;9.45;100.00;153786.94;5002757;28;20814;-80
2023/10/06 00:44:23;;;;;;;8.87;7.83;;;;;;;9.45;100.00;153786.94;4982531;28;20453;-80
2023/10/06 00:46:50;;;;;;;10.27;8.30;;;;;;;9.45;100.00;153786.94;4980220;28;20449;-80
2023/10/06 00:49:18;;;;;;;10.37;8.00;;;;;;;9.46;100.00;153789.53;4987852;28;20500;-80
2023/10/06 00:51:45;;;;;;;9.40;7.70;;;;;;;9.45;100.00;153786.94;4986283;28;20489;-80
2023/10/06 00:54:14;;;;;;;12.70;9.50;;;;;;;9.43;100.00;153780.47;4986744;28;20815;-80
2023/10/06 00:56:42;;;;;;;12.30;7.53;;;;;;;9.42;100.00;153779.22;4983959;28;20455;-80
2023/10/06 00:59:12;;;;;;;9.40;8.40;;;;;;;9.43;100.00;153781.75;4988730;28;20501;-80
2023/10/06 01:01:38;;;;;;;12.30;8.40;;;;;;;9.43;100.00;153780.47;4969893;28;20456;-80
2023/10/06 01:04:08;;;;;;;10.67;9.40;;;;;;;9.41;100.00;153776.59;4979387;28;20452;-80
2023/10/06 01:06:37;;;;;;;12.50;9.00;;;;;;;9.38;100.00;153768.84;4997280;28;20450;-80
2023/10/06 01:09:14;;;;;;;13.40;8.90;;;;;;;9.37;100.00;153764.97;4988869;28;20550;-80
2023/10/06 01:11:45;;;;;;;11.77;8.97;;;;;;;9.35;100.00;153761.06;4969414;28;20478;-80
2023/10/06 01:14:14;;;;;;;11.30;9.37;;;;;;;9.32;100.00;153753.31;4984312;28;20455;-80
2023/10/06 01:16:43;;;;;;;10.60;9.07;;;;;;;9.32;100.00;153752.03;4974051;28;20477;-80
2023/10/06 01:19:17;;;;;;;10.40;8.93;;;;;;;9.31;100.00;153749.44;4968790;28;21268;-80
2023/10/06 01:21:46;;;;;;;15.13;10.50;;;;;;;9.31;100.00;153749.44;4982743;28;20955;-80
2023/10/06 01:24:15;;;;;;;11.07;9.37;;;;;;;9.28;100.00;153741.69;4978849;28;20475;-80
2023/10/06 01:26:42;;;;;;;11.00;8.67;;;;;;;9.24;100.00;153732.59;5010138;28;20452;-80
2023/10/06 01:29:11;;;;;;;14.90;10.47;;;;;;;9.23;100.00;153730.03;4967783;28;20473;-80
2023/10/06 01:31:39;;;;;;;10.50;8.90;;;;;;;9.21;100.00;153724.88;4981915;28;20492;-80
2023/10/06 01:34:08;;;;;;;13.23;9.90;;;;;;;9.17;100.00;153715.81;4971197;28;20430;-80
2023/10/06 01:36:35;;;;;;;10.70;9.60;;;;;;;9.16;100.00;153713.22;4988872;28;20451;-79
2023/10/06 01:39:04;;;;;;;14.10;9.70;;;;;;;9.16;100.00;153713.22;4955271;28;20442;-80
2023/10/06 01:41:34;;;;;;;15.20;10.37;;;;;;;9.14;100.00;153706.75;4954322;28;20450;-80
2023/10/06 01:44:01;;;;;;;15.10;9.87;;;;;;;9.11;100.00;153698.97;4987344;28;20787;-80
2023/10/06 01:46:29;;;;;;;15.93;11.77;;;;;;;9.07;100.00;153688.66;4971760;28;20976;-80
2023/10/06 01:48:56;;;;;;;15.70;11.00;;;;;;;9.06;100.00;153686.06;4994798;28;20882;-80
2023/10/06 01:51:23;;;;;;;13.03;11.10;;;;;;;9.09;100.00;153693.81;4968182;28;20473;-80
2023/10/06 01:53:50;;;;;;;14.60;12.23;;;;;;;9.14;100.00;153706.75;4987910;28;20542;-80
2023/10/06 01:56:22;;;;;;;13.30;11.70;;;;;;;9.13;100.00;153704.19;4981939;28;20493;-80
2023/10/06 01:58:51;;;;;;;17.53;12.67;;;;;;;9.11;100.00;153698.97;4983060;28;20445;-80
2023/10/06 02:01:19;;;;;;;16.70;11.80;;;;;;;9.09;100.00;153695.13;4985843;28;20877;-80
2023/10/06 02:03:46;;;;;;;19.80;12.77;;;;;;;9.12;100.00;153702.88;4987161;28;20955;-80
2023/10/06 02:06:16;;;;;;;16.40;12.77;;;;;;;9.10;100.00;153696.41;4979556;28;20552;-80
2023/10/06 02:08:49;;;;;;;16.40;13.83;;;;;;;9.10;100.00;153697.72;4984674;28;20461;-80
2023/10/06 02:11:16;;;;;;;17.53;12.30;;;;;;;9.08;100.00;153692.50;4976167;28;20484;-80
2023/10/06 02:13:43;;;;;;;15.63;11.97;;;;;;;9.09;100.00;153693.81;4986104;28;20440;-80
2023/10/06 02:16:10;;;;;;;17.87;12.30;;;;;;;9.08;100.00;153691.25;4980658;28;20462;-80
2023/10/06 02:18:37;;;;;;;18.37;11.10;;;;;;;9.04;100.00;153680.88;4984973;28;20518;-80
2023/10/06 02:21:11;;;;;;;13.30;11.10;;;;;;;8.98;100.00;153665.34;4967686;28;20446;-80
2023/10/06 02:23:38;;;;;;;13.97;11.53;;;;;;;8.92;100.00;153651.13;4970445;28;20451;-80
2023/10/06 02:26:08;;;;;;;16.03;12.30;;;;;;;8.89;100.00;153642.13;4980279;28;20538;-80
2023/10/06 02:28:36;;;;;;;17.70;11.20;;;;;;;8.84;100.00;153630.44;4993476;28;20945;-80
2023/10/06 02:31:05;;;;;;;14.53;11.53;;;;;;;8.82;100.00;153623.97;4988293;28;20513;-80
2023/10/06 02:33:39;;;;;;;14.40;11.23;;;;;;;8.80;100.00;153618.81;4956443;28;20462;-80
2023/10/06 02:36:15;;;;;;;14.60;12.03;;;;;;;8.79;100.00;153616.25;4968331;28;20486;-80
2023/10/06 02:38:46;;;;;;;16.00;12.00;;;;;;;8.72;100.00;153598.13;4954396;28;20434;-80
2023/10/06 02:41:19;;;;;;;13.10;10.90;;;;;;;8.71;100.00;153595.56;4953598;28;20465;-79
2023/10/06 02:43:49;;;;;;;16.03;12.90;;;;;;;8.68;100.00;153587.81;4974517;28;20555;-80
2023/10/06 02:46:16;;;;;;;13.87;11.53;;;;;;;8.66;100.00;153583.91;4967148;28;20457;-79
2023/10/06 02:48:49;;;;;;;17.33;11.60;;;;;;;8.66;100.00;153582.66;4963536;28;20577;-79
2023/10/06 02:51:22;;;;;;;16.33;12.17;;;;;;;8.61;100.00;153570.97;4986228;28;20497;-80
2023/10/06 02:53:52;;;;;;;17.80;12.03;;;;;;;8.57;100.00;153561.97;4969475;28;20910;-80
2023/10/06 02:56:28;;;;;;;12.67;9.80;;;;;;;8.54;100.00;153554.19;4969025;28;20450;-79
2023/10/06 02:58:59;;;;;;;10.53;9.27;;;;;;;8.51;100.00;153546.44;4982962;28;20460;-79
2023/10/06 03:01:25;;;;;;;14.50;10.23;;;;;;;8.52;100.00;153549.00;4972859;28;21032;-79
2023/10/06 03:04:05;;;;;;;12.10;8.97;;;;;;;8.53;100.00;153551.59;4982549;28;20442;-79
2023/10/06 03:06:33;;;;;;;13.07;9.60;;;;;;;8.49;100.00;153541.28;4950199;28;20826;-79
2023/10/06 03:09:07;;;;;;;12.30;9.43;;;;;;;8.49;100.00;153541.28;4988155;28;20461;-79
2023/10/06 03:11:34;;;;;;;10.50;9.20;;;;;;;8.47;100.00;153536.06;4970409;28;20485;-79
2023/10/06 03:14:03;;;;;;;12.40;9.60;;;;;;;8.47;100.00;153536.06;4962543;28;20837;-79
2023/10/06 03:16:32;;;;;;;11.40;8.70;;;;;;;8.48;100.00;153538.69;4987787;28;20482;-79
2023/10/06 03:19:00;;;;;;;9.80;8.73;;;;;;;8.49;100.00;153539.97;4964357;28;20449;-79
2023/10/06 03:21:30;;;;;;;12.90;9.90;;;;;;;8.49;100.00;153539.97;4973515;28;20442;-79
2023/10/06 03:24:05;;;;;;;10.10;8.33;;;;;;;8.53;100.00;153551.59;4989393;28;20475;-79
2023/10/06 03:26:34;;;;;;;11.07;9.10;;;;;;;8.51;100.00;153546.44;4997455;28;20457;-79
2023/10/06 03:29:03;;;;;;;13.00;8.77;;;;;;;8.46;100.00;153533.53;4968724;28;20497;-79
2023/10/06 03:31:44;;;;;;;11.97;8.37;;;;;;;8.46;100.00;153533.53;5000837;28;20474;-80
2023/10/06 03:34:16;;;;;;;12.10;8.03;;;;;;;8.46;100.00;153533.53;4971999;28;20459;-79
2023/10/06 03:36:51;;;;;;;12.30;8.47;;;;;;;8.47;100.00;153536.06;4981063;28;20481;-79
2023/10/06 03:39:29;;;;;;;10.67;8.30;;;;;;;8.48;100.00;153537.38;4972548;28;20444;-80
2023/10/06 03:42:00;;;;;;;10.47;8.33;;;;;;;8.47;100.00;153536.06;4957688;28;20428;-79
2023/10/06 03:44:30;;;;;;;10.27;7.83;;;;;;;8.48;100.00;153538.69;4973181;28;20445;-79
2023/10/06 03:47:00;;;;;;;11.00;9.00;;;;;;;8.46;100.00;153532.22;4975024;28;20501;-79
2023/10/06 03:49:33;;;;;;;13.03;8.20;;;;;;;8.46;100.00;153532.22;4979394;28;20495;-79
2023/10/06 03:51:59;;;;;;;12.17;9.80;;;;;;;8.46;100.00;153533.53;4973902;28;20469;-79
2023/10/06 03:54:26;;;;;;;10.50;8.57;;;;;;;8.47;100.00;153536.06;4988569;28;21156;-79
2023/10/06 03:56:53;;;;;;;12.87;9.93;;;;;;;8.50;100.00;153542.53;4989060;28;20442;-79
2023/10/06 03:59:21;;;;;;;10.97;8.13;;;;;;;8.51;100.00;153545.13;4990439;28;20450;-79
2023/10/06 04:01:47;;;;;;;12.47;8.80;;;;;;;8.52;100.00;153549.00;4979075;28;20445;-79
2023/10/06 04:04:15;;;;;;;14.03;8.40;;;;;;;8.51;100.00;153545.13;4984060;28;20914;-79
2023/10/06 04:06:44;;;;;;;12.50;8.83;;;;;;;8.53;100.00;153550.28;4985538;28;21020;-79
2023/10/06 04:09:11;;;;;;;14.10;9.50;;;;;;;8.51;100.00;153546.44;4987970;28;20441;-79
2023/10/06 04:11:38;;;;;;;14.03;8.93;;;;;;;8.53;100.00;153550.28;4987959;28;20814;-79
2023/10/06 04:14:05;;;;;;;10.97;8.70;;;;;;;8.51;100.00;153546.44;4988646;28;20458;-79
2023/10/06 04:16:41;;;;;;;11.83;8.17;;;;;;;8.50;100.00;153542.53;4981373;28;20579;-79
2023/10/06 04:19:08;;;;;;;10.27;7.90;;;;;;;8.47;100.00;153534.81;4983476;28;20441;-79
2023/10/06 04:21:34;;;;;;;9.43;8.50;;;;;;;8.46;100.00;153532.22;4986015;28;20542;-79
2023/10/06 04:24:03;;;;;;;11.40;7.90;;;;;;;8.42;100.00;153521.84;4995067;28;21029;-79
2023/10/06 04:26:30;;;;;;;11.30;8.73;;;;;;;8.39;100.00;153515.38;4970421;28;20458;-80
2023/10/06 04:28:59;;;;;;;10.63;9.27;;;;;;;8.36;100.00;153507.69;4988618;28;20448;-79
2023/10/06 04:31:25;;;;;;;8.93;7.77;;;;;;;8.32;100.00;153497.31;4982837;28;20557;-78
2023/10/06 04:33:53;;;;;;;9.63;8.13;;;;;;;8.27;100.00;153484.41;4987510;28;21593;-80
2023/10/06 04:36:23;;;;;;;8.83;7.90;;;;;;;8.23;100.00;153472.72;4972181;28;20457;-80
2023/10/06 04:38:50;;;;;;;12.40;8.27;;;;;;;8.18;100.00;153461.06;4986296;28;20988;-80
2023/10/06 04:41:20;;;;;;;9.87;7.53;;;;;;;8.14;100.00;153449.44;4971938;28;20470;-80
2023/10/06 04:43:46;;;;;;;10.07;9.03;;;;;;;8.07;100.00;153432.66;4984831;28;21037;-80
2023/10/06 04:46:13;;;;;;;10.20;8.10;;;;;;;8.05;100.00;153427.47;4987634;28;20461;-80
2023/10/06 04:48:40;;;;;;;9.97;8.70;;;;;;;8.03;100.00;153422.31;4988580;28;21036;-79
2023/10/06 04:51:09;;;;;;;10.40;8.50;;;;;;;8.00;100.00;153414.53;4975557;28;20834;-79
2023/10/06 04:53:36;;;;;;;10.70;8.17;;;;;;;7.94;100.00;153400.34;4974877;28;20474;-79
2023/10/06 04:56:03;;;;;;;9.80;8.10;;;;;;;7.91;100.00;153392.63;4985594;28;20549;-80
2023/10/06 04:58:32;;;;;;;9.00;8.10;;;;;;;7.91;100.00;153391.31;4986597;28;20478;-79
2023/10/06 05:01:00;;;;;;;10.60;9.00;;;;;;;7.89;100.00;153387.41;4976209;28;20468;-80
2023/10/06 05:03:27;;;;;;;10.80;8.20;;;;;;;7.87;100.00;153380.97;4976083;28;20454;-79
2023/10/06 05:05:55;;;;;;;9.90;8.90;;;;;;;7.85;100.00;153375.81;4977511;28;20457;-79
2023/10/06 05:08:24;;;;;;;13.37;9.47;;;;;;;7.84;100.00;153373.19;4978880;28;20465;-79
2023/10/06 05:10:51;;;;;;;9.50;8.50;;;;;;;7.81;100.00;153366.75;4975976;28;20524;-79
2023/10/06 05:13:19;;;;;;;9.70;8.30;;;;;;;7.81;100.00;153365.50;4975483;28;20585;-79
2023/10/06 05:15:47;;;;;;;11.40;8.90;;;;;;;7.80;100.00;153362.88;4957892;28;20561;-79
2023/10/06 05:18:15;;;;;;;10.97;8.97;;;;;;;7.80;100.00;153364.19;4978267;28;20929;-79
2023/10/06 05:20:42;;;;;;;10.80;8.50;;;;;;;7.82;100.00;153368.03;4972786;28;20458;-79
2023/10/06 05:23:11;;;;;;;11.20;9.13;;;;;;;7.82;100.00;153368.03;4976020;28;20446;-79
2023/10/06 05:25:38;;;;;;;11.00;8.63;;;;;;;7.81;100.00;153365.50;4976678;28;20454;-80
2023/10/06 05:28:07;;;;;;;11.53;9.50;;;;;;;7.79;100.00;153361.59;4975892;28;20457;-79
2023/10/06 05:30:36;;;;;;;11.37;9.70;;;;;;;7.82;100.00;153368.03;4973787;28;20870;-80
2023/10/06 05:33:05;;;;;;;13.20;9.00;;;;;;;7.81;100.00;153365.50;4976058;28;20569;-79
2023/10/06 05:35:36;;;;;;;13.90;10.40;;;;;;;7.81;100.00;153366.75;4975396;28;20820;-78
2023/10/06 05:38:03;;;;;;;11.80;9.73;;;;;;;7.85;100.00;153375.81;4977066;28;20457;-78
2023/10/06 05:40:29;;;;;;;14.70;9.60;;;;;;;7.85;100.00;153377.09;4959176;28;20544;-78
2023/10/06 05:42:57;;;;;;;12.13;9.30;;;;;;;7.87;100.00;153380.97;4975403;28;20512;-78
2023/10/06 05:45:24;;;;;;;14.80;10.47;;;;;;;7.87;100.00;153380.97;4974971;28;20464;-78
2023/10/06 05:47:51;;;;;;;13.30;9.93;;;;;;;7.88;100.00;153383.56;4973406;28;20553;-80
2023/10/06 05:50:27;;;;;;;10.10;8.67;;;;;;;7.89;100.00;153386.13;4976163;28;20449;-80
2023/10/06 05:52:59;;;;;;;9.70;8.63;;;;;;;7.91;100.00;153391.31;4974152;28;20466;-80
2023/10/06 05:55:30;;;;;;;10.70;9.27;;;;;;;7.94;100.00;153400.34;4972757;28;20468;-78
2023/10/06 05:57:58;;;;;;;10.00;7.87;;;;;;;7.96;100.00;153404.22;4974899;28;20460;-79
2023/10/06 06:00:27;;;;;;;11.63;8.90;;;;;;;8.00;100.00;153414.53;4958458;28;20463;-80
2023/10/06 06:02:57;;;;;;;12.77;9.20;;;;;;;8.07;100.00;153432.66;4982756;28;20460;-80
2023/10/06 06:05:26;;;;;;;11.87;8.57;;;;;;;8.18;100.00;153461.06;4957867;28;20453;-80
2023/10/06 06:07:53;;;;;;;12.50;8.80;;;;;;;8.31;100.00;153494.72;4958005;28;20484;-80
2023/10/06 06:10:21;;;;;;;12.37;10.03;;;;;;;8.43;100.00;153525.75;4955624;28;20458;-80
2023/10/06 06:12:48;;;;;;;11.43;8.77;;;;;;;8.58;100.00;153564.53;4978166;28;20482;-80
2023/10/06 06:15:16;;;;;;;14.03;9.60;;;;;;;8.76;100.00;153608.50;4972406;28;20553;-80
2023/10/06 06:17:44;;;;;;;10.23;8.90;;;;;;;8.97;100.00;153662.81;4956264;28;20458;-80
2023/10/06 06:20:14;;;;;;;10.37;8.60;;;;;;;9.12;100.00;153702.88;4973426;28;20464;-80
2023/10/06 06:22:50;;;;;;;12.07;8.20;;;;;;;9.27;100.00;153739.06;4974483;28;20447;-80
2023/10/06 06:25:18;;;;;;;10.20;9.13;;;;;;;9.47;100.00;153792.13;4972644;28;20752;-80
2023/10/06 06:27:45;;;;;;;12.70;9.07;;;;;;;9.59;100.00;153823.16;4974830;28;20884;-80
2023/10/06 06:30:12;;;;;;;10.70;9.27;;;;;;;9.84;100.00;153885.28;4959018;28;20461;-80
2023/10/06 06:32:39;;;;;;;11.07;7.93;;;;;;;10.05;100.00;153940.94;4972549;28;20481;-80
2023/10/06 06:35:08;;;;;;;10.77;8.60;;;;;;;10.28;100.00;153999.22;4972661;28;20874;-80
2023/10/06 06:37:34;;;;;;;12.20;8.43;;;;;;;10.48;100.00;154051.03;4990987;28;20441;-80
2023/10/06 06:40:06;;;;;;;9.87;8.63;;;;;;;10.72;100.00;154113.13;4975796;28;20462;-80
2023/10/06 06:42:32;;;;;;;10.93;8.40;;;;;;;10.96;100.00;154175.31;4974288;28;20508;-80
2023/10/06 06:45:01;;;;;;;11.13;7.97;;;;;;;11.20;100.00;154234.94;4973676;28;20465;-80
2023/10/06 06:47:27;;;;;;;10.00;7.93;;;;;;;11.41;100.00;154290.59;4977563;28;20519;-80
2023/10/06 06:49:54;;;;;;;10.80;8.57;;;;;;;11.63;100.00;154346.31;4973709;28;20476;-79
2023/10/06 06:52:23;;;;;;;10.40;7.93;;;;;;;11.86;100.00;154405.97;4974796;28;20521;-80
2023/10/06 06:54:50;;;;;;;9.60;8.40;;;;;;;12.04;98.80;154452.69;4974852;28;20900;-80
2023/10/06 06:57:19;;;;;;;10.30;8.53;;;;;;;12.26;98.53;154508.38;4980032;28;20530;-80
2023/10/06 06:59:46;;;;;;;15.43;9.70;;;;;;;12.42;96.86;154548.56;4962864;28;21075;-80
2023/10/06 07:02:13;;;;;;;15.17;8.60;;;;;;;12.59;96.35;154594.00;4976036;28;20451;-80
2023/10/06 07:04:41;;;;;;;12.27;8.57;;;;;;;12.76;94.95;154636.81;4977946;28;20505;-79
2023/10/06 07:07:07;;;;;;;10.70;7.60;;;;;;;12.93;93.61;154679.56;4974930;28;20450;-80
2023/10/06 07:09:34;;;;;;;14.37;8.93;;;;;;;13.09;92.81;154722.44;4973642;28;20565;-80
2023/10/06 07:12:01;;;;;;;11.40;8.03;;;;;;;13.27;91.82;154769.13;4977174;28;21138;-80
2023/10/06 07:14:30;;;;;;;8.57;7.30;;;;;;;13.52;91.28;154831.44;4973258;28;20997;-79
2023/10/06 07:16:57;;;;;;;8.43;7.03;;;;;;;13.73;89.92;154885.94;4975124;28;20460;-79
2023/10/06 07:19:24;;;;;;;8.90;7.93;;;;;;;13.89;89.20;154927.50;4976568;28;20456;-80
2023/10/06 07:21:51;;;;;;;7.90;7.10;;;;;;;14.00;88.01;154956.06;4975111;28;20449;-79
2023/10/06 07:24:18;;;;;;;10.63;7.40;;;;;;;14.11;87.46;154984.59;4959021;28;20493;-80
2023/10/06 07:26:45;;;;;;;8.10;7.23;;;;;;;14.26;86.93;155023.56;4976126;28;20533;-79
2023/10/06 07:29:11;;;;;;;7.83;6.97;;;;;;;14.44;86.02;155070.38;4978482;28;20468;-80
2023/10/06 07:31:39;;;;;;;9.43;6.70;;;;;;;14.62;85.34;155117.09;4976699;28;21031;-80
2023/10/06 07:34:06;;;;;;;8.90;7.23;;;;;;;14.81;84.28;155163.88;4973989;28;20495;-80
2023/10/06 07:36:35;;;;;;;8.90;7.00;;;;;;;14.99;83.82;155211.94;4960443;28;20476;-79
2023/10/06 07:39:03;;;;;;;8.40;6.40;;;;;;;15.17;83.02;155258.72;4991760;28;20949;-79
2023/10/06 07:41:30;;;;;;;8.17;6.70;;;;;;;15.35;82.43;155304.22;4975736;28;20493;-80
2023/10/06 07:43:57;;;;;;;7.67;6.83;;;;;;;15.58;81.81;155362.75;4973588;28;20461;-79
2023/10/06 07:46:24;;;;;;;11.53;8.83;;;;;;;15.68;81.09;155388.72;4972836;28;20455;-79
2023/10/06 07:48:55;;;;;;;13.20;8.80;;;;;;;15.82;80.57;155425.13;4975724;28;20453;-79
2023/10/06 07:51:23;;;;;;;9.60;7.13;;;;;;;15.95;79.98;155457.63;4974900;28;20457;-80
2023/10/06 07:53:50;;;;;;;8.43;7.23;;;;;;;16.13;79.38;155505.75;4975214;28;20477;-80
2023/10/06 07:56:18;;;;;;;8.27;6.50;;;;;;;16.17;79.18;155514.88;4976799;28;20461;-80
2023/10/06 07:58:45;;;;;;;9.63;6.57;;;;;;;16.09;78.92;155494.06;4978965;28;20459;-80
2023/10/06 08:01:12;;;;;;;9.80;7.50;;;;;;;16.07;79.50;155490.13;4978186;28;20606;-80
2023/10/06 08:03:41;;;;;;;9.23;7.30;;;;;;;16.05;79.67;155484.94;4978382;28;20453;-80
2023/10/06 08:06:11;;;;;;;8.40;7.50;;;;;;;15.81;80.57;155423.81;4980390;28;20450;-80
2023/10/06 08:08:38;;;;;;;8.43;7.10;;;;;;;15.52;81.76;155348.44;4987039;28;20480;-80
2023/10/06 08:11:06;;;;;;;9.43;7.23;;;;;;;15.30;83.02;155291.22;4981166;28;20568;-79
2023/10/06 08:13:33;;;;;;;8.70;7.00;;;;;;;15.19;83.26;155262.63;4979259;28;20521;-80
2023/10/06 08:16:00;;;;;;;9.27;7.40;;;;;;;15.04;84.39;155223.63;4977164;28;20835;-80
2023/10/06 08:18:28;;;;;;;10.80;7.00;;;;;;;14.97;85.87;155205.44;4979580;28;20446;-80
2023/10/06 08:20:55;;;;;;;8.97;8.07;;;;;;;14.89;86.07;155184.66;4977206;28;20835;-80
2023/10/06 08:23:23;;;;;;;8.53;7.63;;;;;;;14.87;85.61;155179.47;4979096;28;21145;-80
2023/10/06 08:25:52;;;;;;;10.97;7.47;;;;;;;14.85;87.31;155174.28;4977096;28;20637;-80
2023/10/06 08:28:19;;;;;;;8.60;7.40;;;;;;;14.83;87.05;155170.34;4973884;28;20445;-80
2023/10/06 08:30:46;;;;;;;7.60;6.80;;;;;;;14.84;86.32;155171.66;4975280;28;20473;-80
2023/10/06 08:33:13;;;;;;;9.90;7.40;;;;;;;14.81;86.82;155163.88;4978264;28;20476;-80
2023/10/06 08:35:40;;;;;;;9.47;6.60;;;;;;;14.76;88.05;155150.88;4976534;28;20496;-80
2023/10/06 08:38:07;;;;;;;10.60;7.10;;;;;;;14.71;87.74;155137.91;4980530;28;20485;-80
2023/10/06 08:40:37;;;;;;;13.23;8.30;;;;;;;14.72;88.66;155140.50;4976593;28;20462;-80
2023/10/06 08:43:06;;;;;;;11.33;7.77;;;;;;;14.73;88.31;155143.09;4992365;28;20450;-80
2023/10/06 08:45:33;;;;;;;8.20;7.23;;;;;;;14.73;88.15;155143.09;4975108;28;20517;-80
2023/10/06 08:48:01;;;;;;;11.70;6.67;;;;;;;14.71;89.03;155137.91;4976285;28;20480;-80
2023/10/06 08:50:29;;;;;;;7.60;6.80;;;;;;;14.69;88.88;155134.03;4975126;28;20454;-80
2023/10/06 08:52:56;;;;;;;7.63;6.90;;;;;;;14.71;90.04;155137.91;4976359;28;21030;-80
2023/10/06 08:55:24;;;;;;;8.70;6.60;;;;;;;14.69;88.56;155134.03;4977519;28;20449;-80
2023/10/06 08:57:53;;;;;;;11.23;7.47;;;;;;;14.70;91.09;155135.28;4975730;28;20980;-80
2023/10/06 09:00:22;;;;;;;8.93;8.00;;;;;;;14.69;89.84;155132.72;4977120;28;20993;-80
2023/10/06 09:02:50;;;;;;;9.20;7.90;;;;;;;14.71;89.81;155137.91;4976537;28;20462;-80
2023/10/06 09:05:17;;;;;;;9.30;7.83;;;;;;;14.85;86.93;155174.28;4973137;28;20506;-80
2023/10/06 09:08:00;;;;;;;9.43;7.30;;;;;;;15.12;85.52;155244.41;4979536;28;20548;-80
2023/10/06 09:10:29;;;;;;;8.60;7.33;;;;;;;15.14;86.47;155250.91;4976453;28;20450;-80
2023/10/06 09:13:04;;;;;;;9.90;6.93;;;;;;;15.15;88.00;155252.22;4977377;28;20450;-80
2023/10/06 09:15:37;;;;;;;10.83;7.20;;;;;;;15.11;87.51;155241.84;4975447;28;20470;-80
2023/10/06 09:18:19;;;;;;;8.23;7.00;;;;;;;15.06;86.54;155230.09;4977505;28;20453;-80
2023/10/06 09:20:48;;;;;;;13.83;7.47;;;;;;;15.13;88.62;155247.03;4969222;28;20466;-80
2023/10/06 09:23:31;;;;;;;8.57;7.03;;;;;;;15.11;89.40;155243.16;4975257;28;20515;-80
2023/10/06 09:26:02;;;;;;;9.87;7.03;;;;;;;15.12;89.52;155244.41;4975919;28;20533;-80
2023/10/06 09:28:36;;;;;;;7.90;6.80;;;;;;;15.13;88.05;155248.34;4977277;28;20501;-80
2023/10/06 09:31:05;;;;;;;8.13;6.50;;;;;;;15.18;86.49;155260.00;4977168;28;20890;-80
2023/10/06 09:33:48;;;;;;;9.90;6.20;;;;;;;15.36;84.60;155306.78;4975384;28;20545;-80
2023/10/06 09:36:21;;;;;;;10.47;7.23;;;;;;;15.43;84.92;155325.00;4978714;28;20461;-80
2023/10/06 09:39:02;;;;;;;9.70;7.40;;;;;;;15.50;84.58;155341.94;4976489;28;20445;-80
2023/10/06 09:41:33;;;;;;;10.73;6.87;;;;;;;15.46;84.90;155332.81;4977862;28;20457;-80
2023/10/06 09:44:05;;;;;;;10.60;7.70;;;;;;;15.48;84.39;155336.75;4974645;28;20449;-80
2023/10/06 09:46:57;;;;;;;9.77;7.20;;;;;;;15.61;84.12;155371.84;4977387;28;20568;-80
2023/10/06 09:49:26;;;;;;;10.07;6.87;;;;;;;15.69;83.17;155391.34;4951188;28;20458;-80
2023/10/06 09:51:56;;;;;;;7.70;6.60;;;;;;;15.73;83.38;155403.03;4974176;28;20462;-80
2023/10/06 09:54:31;;;;;;;10.30;6.50;;;;;;;15.71;83.58;155396.53;4961745;28;20478;-80
2023/10/06 09:56:58;;;;;;;12.70;7.17;;;;;;;15.78;83.32;155416.03;4977049;28;20477;-79
2023/10/06 09:59:32;;;;;;;7.60;6.70;;;;;;;15.84;82.53;155431.63;4974653;28;20564;-79
2023/10/06 10:01:59;;;;;;;8.80;6.93;;;;;;;15.98;82.25;155465.44;4977608;28;20457;-80
2023/10/06 10:04:32;;;;;;;8.53;6.73;;;;;;;15.95;82.85;155457.63;4993681;28;20461;-79
2023/10/06 10:07:02;;;;;;;8.17;6.67;;;;;;;15.94;82.77;155455.06;4978372;28;20537;-79
2023/10/06 10:09:30;;;;;;;9.10;6.13;;;;;;;15.99;82.96;155469.31;4978850;28;20509;-80
2023/10/06 10:12:04;;;;;;;10.90;7.40;;;;;;;16.10;83.39;155496.63;4977367;28;20583;-80
2023/10/06 10:14:51;;;;;;;8.53;6.80;;;;;;;16.18;80.56;155517.44;4974830;28;20469;-79
2023/10/06 10:17:29;;;;;;;7.27;6.50;;;;;;;16.27;80.56;155540.84;4959472;28;20462;-80
2023/10/06 10:19:56;;;;;;;8.27;6.67;;;;;;;16.33;80.92;155557.78;4975869;28;20449;-79
2023/10/06 10:22:23;;;;;;;7.83;6.33;;;;;;;16.24;81.96;155533.06;4976415;28;20460;-79
2023/10/06 10:24:50;;;;;;;7.53;6.63;;;;;;;16.17;81.56;155516.16;4958037;28;20458;-79
2023/10/06 10:27:20;;;;;;;8.73;5.93;;;;;;;16.15;80.76;155509.66;4976199;28;20874;-79
2023/10/06 10:29:49;;;;;;;8.30;5.80;;;;;;;16.19;81.08;155521.38;4973471;28;20594;-79
2023/10/06 10:32:17;;;;;;;9.90;6.57;;;;;;;16.28;81.61;155543.47;4974657;28;20862;-79
2023/10/06 10:35:08;;;;;;;8.90;5.90;;;;;;;16.48;78.44;155595.47;4974342;28;20473;-79
2023/10/06 10:37:52;;;;;;;9.60;6.40;;;;;;;16.56;78.45;155615.03;4976552;28;20454;-79
2023/10/06 10:40:21;;;;;;;9.20;6.13;;;;;;;16.64;78.33;155637.16;4975815;28;20449;-79
2023/10/06 10:42:53;;;;;;;8.23;5.77;;;;;;;16.71;78.12;155655.34;4959733;28;20459;-79
2023/10/06 10:45:31;;;;;;;7.00;5.73;;;;;;;16.62;78.76;155631.97;4975800;28;21478;-79
2023/10/06 10:47:58;;;;;;;7.30;5.50;;;;;;;16.59;79.58;155622.84;4974525;28;21148;-79
2023/10/06 10:50:44;;;;;;;6.30;5.20;;;;;;;16.63;79.08;155634.53;4974257;28;20455;-79
2023/10/06 10:53:12;;;;;;;8.63;6.87;;;;;;;16.79;77.58;155674.88;4975024;28;20493;-79
2023/10/06 10:55:39;;;;;;;7.87;6.73;;;;;;;16.98;76.60;155725.63;4976433;28;20522;-79
2023/10/06 10:58:07;;;;;;;8.37;5.70;;;;;;;16.95;77.34;155717.81;4974159;28;20474;-79
2023/10/06 11:00:35;;;;;;;7.47;5.70;;;;;;;16.90;77.76;155704.81;4974272;28;20464;-79
2023/10/06 11:03:03;;;;;;;8.30;6.07;;;;;;;16.80;78.97;155678.78;4975209;28;20760;-79
2023/10/06 11:05:31;;;;;;;8.30;5.63;;;;;;;16.86;78.66;155694.41;4971737;28;20975;-79
2023/10/06 11:07:59;;;;;;;7.10;5.30;;;;;;;16.98;76.79;155725.63;4977726;28;20463;-79
2023/10/06 11:10:26;;;;;;;5.53;4.67;;;;;;;17.12;75.70;155759.47;4973318;28;20907;-79
2023/10/06 11:13:12;;;;;;;9.13;6.40;;;;;;;17.28;76.35;155802.41;4976603;28;20458;-79
2023/10/06 11:15:40;;;;;;;8.93;6.03;;;;;;;17.36;76.96;155823.25;4973680;28;20479;-79
2023/10/06 11:18:07;;;;;;;6.10;4.70;;;;;;;17.42;74.77;155838.81;4976870;28;20458;-79
2023/10/06 11:20:36;;;;;;;6.40;4.90;;;;;;;17.40;76.00;155832.31;4974015;28;20884;-79
2023/10/06 11:23:03;;;;;;;5.80;4.47;;;;;;;17.23;75.56;155789.41;4975601;28;20453;-79
2023/10/06 11:25:32;;;;;;;6.23;4.37;;;;;;;17.23;76.23;155788.09;4973413;28;20918;-79
2023/10/06 11:28:02;;;;;;;6.73;4.70;;;;;;;17.14;76.51;155764.66;4972662;28;20460;-79
2023/10/06 11:30:30;;;;;;;5.93;4.77;;;;;;;17.08;75.93;155750.34;4973150;28;20505;-79